Time;durP1;ratioP1;P1;durP2;ratioP2;P2;SDS_P1;SDS_P2;PMS_P1;PMS_P2;Temp;Humidity;BMP_temperature;BMP_pressure;BME280_temperature;BME280_humidity;BME280_pressure;Samples;Min_cycle;Max_cycle;Signal;HPM_P1;HPM_P2
2022/07/14 00:01:37;;;;;;;1.45;0.65;;;20.40;66.70;;;;;;5018362;28;20500;-76
2022/07/14 00:04:06;;;;;;;4.15;0.30;;;20.40;66.50;;;;;;5014586;28;20041;-77
2022/07/14 00:06:33;;;;;;;1.95;0.45;;;20.40;66.30;;;;;;5014786;28;20124;-76
2022/07/14 00:09:01;;;;;;;3.30;0.38;;;20.30;66.20;;;;;;5013664;28;20172;-77
2022/07/14 00:11:28;;;;;;;3.50;0.50;;;20.40;66.60;;;;;;5016442;28;20050;-76
2022/07/14 00:13:56;;;;;;;4.57;0.70;;;20.30;66.50;;;;;;5014660;28;20045;-76
2022/07/14 00:16:23;;;;;;;2.30;0.75;;;20.30;66.50;;;;;;5032578;28;20054;-76
2022/07/14 00:18:50;;;;;;;2.33;0.60;;;20.30;67.40;;;;;;5016081;28;20041;-76
2022/07/14 00:21:17;;;;;;;2.17;0.45;;;20.20;67.30;;;;;;5015004;28;20182;-76
2022/07/14 00:23:45;;;;;;;1.17;0.50;;;20.20;67.40;;;;;;5011754;28;20045;-76
2022/07/14 00:26:13;;;;;;;4.60;0.80;;;20.20;68.00;;;;;;5018111;28;20042;-76
2022/07/14 00:28:41;;;;;;;2.20;0.55;;;20.20;67.40;;;;;;5010869;28;20061;-77
2022/07/14 00:31:10;;;;;;;5.00;0.60;;;20.10;67.10;;;;;;5016319;28;20080;-76
2022/07/14 00:33:38;;;;;;;2.33;0.50;;;20.10;67.40;;;;;;5000239;28;20077;-76
2022/07/14 00:36:07;;;;;;;2.67;0.43;;;20.10;68.00;;;;;;5016068;28;20528;-76
2022/07/14 00:38:34;;;;;;;2.05;0.50;;;20.10;67.70;;;;;;5016282;28;20095;-76
2022/07/14 00:41:01;;;;;;;5.18;0.68;;;20.10;68.40;;;;;;5020036;28;20038;-77
2022/07/14 00:43:29;;;;;;;1.95;0.63;;;20.00;68.10;;;;;;5017326;28;20049;-77
2022/07/14 00:45:56;;;;;;;2.35;0.47;;;20.00;68.70;;;;;;4993927;28;20064;-77
2022/07/14 00:48:25;;;;;;;3.47;0.65;;;20.10;68.90;;;;;;5016051;28;20056;-76
2022/07/14 00:50:53;;;;;;;2.05;0.60;;;20.00;68.90;;;;;;5016999;28;20124;-77
2022/07/14 00:53:20;;;;;;;3.90;0.70;;;20.00;69.00;;;;;;5001198;28;20077;-77
2022/07/14 00:55:48;;;;;;;7.43;0.82;;;20.00;68.80;;;;;;5018882;28;20095;-76
2022/07/14 00:58:15;;;;;;;1.98;0.80;;;19.90;68.90;;;;;;5023626;28;20046;-77
2022/07/14 01:00:42;;;;;;;2.60;0.47;;;20.00;69.50;;;;;;5018898;28;22440;-77
2022/07/14 01:03:10;;;;;;;1.95;0.50;;;19.90;69.80;;;;;;5034376;28;20045;-76
2022/07/14 01:05:37;;;;;;;4.40;0.60;;;19.90;69.00;;;;;;4996520;28;20129;-76
2022/07/14 01:08:04;;;;;;;2.20;0.80;;;19.90;68.70;;;;;;5014650;28;20711;-76
2022/07/14 01:10:31;;;;;;;2.90;0.70;;;19.90;69.20;;;;;;5011801;28;20054;-76
2022/07/14 01:13:01;;;;;;;3.72;0.70;;;19.90;70.00;;;;;;5029987;28;20060;-77
2022/07/14 01:15:29;;;;;;;2.05;0.60;;;19.90;70.50;;;;;;5035289;28;20511;-76
2022/07/14 01:17:56;;;;;;;2.08;0.60;;;19.80;70.60;;;;;;5030648;28;20041;-77
2022/07/14 01:20:24;;;;;;;2.28;0.65;;;19.80;71.50;;;;;;5016417;28;20045;-77
2022/07/14 01:22:51;;;;;;;2.83;0.55;;;19.80;71.50;;;;;;5004568;28;20044;-76
2022/07/14 01:25:20;;;;;;;2.83;0.50;;;19.80;70.20;;;;;;5021667;28;20046;-76
2022/07/14 01:27:47;;;;;;;2.80;0.80;;;19.70;70.30;;;;;;5021593;28;20049;-77
2022/07/14 01:30:15;;;;;;;3.05;0.50;;;19.70;70.30;;;;;;5034251;28;20508;-77
2022/07/14 01:32:43;;;;;;;3.28;0.95;;;19.70;70.50;;;;;;5017804;28;20567;-77
2022/07/14 01:35:10;;;;;;;2.78;0.60;;;19.60;70.80;;;;;;5020509;28;20041;-77
2022/07/14 01:37:38;;;;;;;4.20;0.63;;;19.60;71.30;;;;;;5018138;28;20386;-77
2022/07/14 01:40:07;;;;;;;4.38;0.68;;;19.60;71.60;;;;;;5032581;28;20042;-76
2022/07/14 01:42:35;;;;;;;4.80;0.40;;;19.50;72.10;;;;;;5001295;28;20041;-76
2022/07/14 01:45:03;;;;;;;3.53;0.52;;;19.50;72.40;;;;;;5019651;28;20049;-77
2022/07/14 01:47:31;;;;;;;3.53;0.82;;;19.50;73.10;;;;;;5029592;28;20045;-77
2022/07/14 01:49:59;;;;;;;4.10;0.50;;;19.60;73.10;;;;;;5016155;28;20042;-74
2022/07/14 01:52:30;;;;;;;4.50;0.60;;;19.60;73.00;;;;;;5019941;28;20443;-77
2022/07/14 01:54:57;;;;;;;1.98;0.70;;;19.60;73.20;;;;;;5033769;28;20092;-75
2022/07/14 01:57:24;;;;;;;3.33;0.80;;;19.50;73.20;;;;;;5021206;28;20048;-77
2022/07/14 01:59:53;;;;;;;5.07;0.80;;;19.50;73.20;;;;;;5001321;28;20037;-75
2022/07/14 02:02:21;;;;;;;1.90;0.60;;;19.50;73.70;;;;;;5017329;28;20103;-75
2022/07/14 02:04:48;;;;;;;2.70;0.65;;;19.50;73.20;;;;;;5016500;28;20037;-76
2022/07/14 02:07:16;;;;;;;5.18;0.55;;;19.40;73.70;;;;;;5019079;28;21161;-75
2022/07/14 02:12:36;;;;;;;3.60;0.55;;;19.40;73.40;;;;;;5011862;28;20524;-76
2022/07/14 02:15:06;;;;;;;3.38;0.50;;;19.40;73.60;;;;;;5013076;28;20091;-76
2022/07/14 02:17:35;;;;;;;1.85;0.47;;;19.40;73.40;;;;;;4999132;28;20080;-76
2022/07/14 02:20:02;;;;;;;2.05;0.30;;;19.40;72.20;;;;;;5027138;28;20041;-76
2022/07/14 02:22:30;;;;;;;2.80;0.80;;;19.30;71.90;;;;;;5018244;28;20041;-75
2022/07/14 02:24:57;;;;;;;4.25;0.75;;;19.40;72.10;;;;;;4996286;28;20076;-75
2022/07/14 02:27:25;;;;;;;3.28;0.40;;;19.30;71.40;;;;;;5016884;28;20151;-75
2022/07/14 02:29:53;;;;;;;2.08;0.38;;;19.30;71.90;;;;;;5033002;28;20073;-75
2022/07/14 02:32:20;;;;;;;6.22;0.60;;;19.40;71.20;;;;;;5035114;28;22112;-77
2022/07/14 02:34:47;;;;;;;1.48;0.57;;;19.30;71.40;;;;;;5017857;28;20041;-75
2022/07/14 02:37:14;;;;;;;2.83;0.45;;;19.40;71.70;;;;;;5017098;28;20033;-75
2022/07/14 02:39:41;;;;;;;4.50;0.50;;;19.40;72.10;;;;;;5017859;28;20394;-75
2022/07/14 02:42:08;;;;;;;3.50;0.70;;;19.40;72.10;;;;;;5000709;28;20041;-76
2022/07/14 02:44:36;;;;;;;5.07;1.10;;;19.40;72.50;;;;;;5015480;28;20041;-75
2022/07/14 02:47:03;;;;;;;2.58;0.70;;;19.30;72.40;;;;;;5005391;28;20045;-75
2022/07/14 02:49:31;;;;;;;6.32;0.75;;;19.30;72.30;;;;;;5010773;28;20049;-75
2022/07/14 02:51:58;;;;;;;5.18;0.63;;;19.20;71.60;;;;;;5004076;28;20140;-75
2022/07/14 02:54:25;;;;;;;3.15;0.50;;;19.20;71.50;;;;;;5019335;28;20042;-75
2022/07/14 02:56:52;;;;;;;4.32;0.95;;;19.20;72.40;;;;;;5012126;28;20045;-75
2022/07/14 02:59:19;;;;;;;4.15;0.70;;;19.20;72.90;;;;;;5011996;28;20799;-75
2022/07/14 03:01:49;;;;;;;5.60;0.70;;;19.20;72.60;;;;;;5000751;28;20048;-75
2022/07/14 03:04:21;;;;;;;3.17;0.55;;;19.10;72.80;;;;;;5018043;28;20072;-75
2022/07/14 03:06:49;;;;;;;2.88;0.50;;;19.10;73.50;;;;;;5016828;28;20144;-77
2022/07/14 03:09:21;;;;;;;2.17;0.50;;;19.10;74.00;;;;;;5001479;28;20049;-75
2022/07/14 03:11:49;;;;;;;3.85;0.63;;;19.10;73.60;;;;;;5009468;28;20053;-77
2022/07/14 03:14:16;;;;;;;2.63;0.75;;;19.10;73.80;;;;;;5031360;28;20050;-76
2022/07/14 03:16:43;;;;;;;1.95;0.68;;;19.10;74.20;;;;;;5013610;28;20542;-76
2022/07/14 03:19:12;;;;;;;4.85;0.60;;;19.10;75.00;;;;;;5010248;28;20628;-77
2022/07/14 03:21:39;;;;;;;3.72;0.77;;;19.00;75.10;;;;;;5033607;28;20049;-77
2022/07/14 03:24:08;;;;;;;3.10;0.80;;;19.00;75.70;;;;;;4995377;28;20049;-76
2022/07/14 03:26:38;;;;;;;4.75;0.98;;;19.10;75.90;;;;;;5010176;28;20546;-76
2022/07/14 03:29:07;;;;;;;5.53;0.40;;;19.00;76.40;;;;;;5015139;28;20050;-77
2022/07/14 03:31:34;;;;;;;2.83;0.52;;;19.10;76.40;;;;;;5014543;28;20048;-77
2022/07/14 03:34:05;;;;;;;5.57;0.50;;;19.00;76.80;;;;;;5010013;28;20038;-77
2022/07/14 03:36:35;;;;;;;4.30;1.02;;;19.00;77.50;;;;;;5017409;28;20048;-77
2022/07/14 03:39:08;;;;;;;5.18;0.68;;;19.10;76.90;;;;;;5015834;28;20409;-76
2022/07/14 03:41:36;;;;;;;10.75;1.10;;;19.00;76.90;;;;;;5016528;28;20315;-77
2022/07/14 03:44:03;;;;;;;10.63;1.40;;;19.10;76.80;;;;;;5016232;28;20060;-76
2022/07/14 03:46:31;;;;;;;8.95;1.63;;;19.10;77.20;;;;;;5016804;28;20539;-76
2022/07/14 03:49:05;;;;;;;13.18;1.48;;;19.10;77.30;;;;;;5017764;28;20045;-77
2022/07/14 03:51:33;;;;;;;13.02;1.65;;;19.10;76.80;;;;;;5031649;28;20053;-77
2022/07/14 03:54:01;;;;;;;7.88;1.85;;;19.10;77.20;;;;;;5017284;28;20049;-77
2022/07/14 03:56:31;;;;;;;11.75;2.08;;;19.10;78.60;;;;;;5017489;28;20132;-77
2022/07/14 03:58:59;;;;;;;8.32;1.30;;;19.10;77.40;;;;;;5018672;28;20045;-77
2022/07/14 04:01:26;;;;;;;3.28;1.08;;;19.10;76.80;;;;;;5014107;28;20189;-77
2022/07/14 04:03:57;;;;;;;5.80;1.30;;;19.10;77.60;;;;;;5017032;28;20042;-76
2022/07/14 04:06:26;;;;;;;4.78;1.42;;;19.10;77.20;;;;;;5016088;28;20041;-77
2022/07/14 04:08:53;;;;;;;6.28;0.93;;;19.10;78.50;;;;;;5033045;28;20046;-77
2022/07/14 04:11:21;;;;;;;11.23;1.23;;;19.10;78.40;;;;;;5031428;28;20049;-77
2022/07/14 04:13:49;;;;;;;10.10;1.77;;;19.10;79.30;;;;;;5012443;28;20076;-76
2022/07/14 04:16:16;;;;;;;4.32;1.10;;;19.10;79.60;;;;;;5023382;28;20263;-75
2022/07/14 04:18:48;;;;;;;4.88;0.80;;;19.20;79.40;;;;;;5010810;28;20055;-75
2022/07/14 04:21:15;;;;;;;7.28;1.10;;;19.30;80.30;;;;;;4999566;28;20045;-75
2022/07/14 04:23:43;;;;;;;11.45;1.23;;;19.30;79.80;;;;;;5013439;28;20091;-76
2022/07/14 04:26:11;;;;;;;7.50;1.02;;;19.30;79.90;;;;;;5002532;28;20045;-76
2022/07/14 04:28:39;;;;;;;7.55;1.33;;;19.40;81.00;;;;;;4999003;28;20132;-75
2022/07/14 04:31:08;;;;;;;5.47;1.70;;;19.50;80.60;;;;;;5027935;28;20316;-75
2022/07/14 04:33:38;;;;;;;4.95;1.20;;;19.50;80.40;;;;;;4998846;28;20086;-75
2022/07/14 04:36:08;;;;;;;8.38;1.65;;;19.50;79.90;;;;;;4999356;28;20049;-75
2022/07/14 04:38:36;;;;;;;5.85;1.50;;;19.60;79.50;;;;;;4995283;28;20560;-76
2022/07/14 04:41:03;;;;;;;6.30;1.15;;;19.70;79.20;;;;;;5013206;28;20046;-75
2022/07/14 04:43:35;;;;;;;7.00;1.63;;;19.80;78.90;;;;;;4996430;28;20045;-76
2022/07/14 04:46:05;;;;;;;6.65;1.00;;;19.90;79.30;;;;;;5000430;28;20054;-76
2022/07/14 04:52:01;;;;;;;6.43;1.05;;;20.00;78.80;;;;;;4997832;28;20049;-75
2022/07/14 04:54:09;;;;;;;14.18;1.60;;;20.20;78.50;;;;;;5014775;28;20056;-76
2022/07/14 04:56:56;;;;;;;12.40;1.75;;;20.20;78.10;;;;;;4998018;28;20139;-76
2022/07/14 04:59:45;;;;;;;5.30;1.10;;;20.40;77.80;;;;;;5027627;28;20045;-75
2022/07/14 05:02:13;;;;;;;7.78;1.33;;;20.50;78.00;;;;;;4977423;28;20143;-76
2022/07/14 05:04:41;;;;;;;5.00;1.15;;;20.60;76.70;;;;;;4960015;28;20049;-76
2022/07/14 05:07:09;;;;;;;3.03;0.77;;;20.80;75.10;;;;;;4973207;28;20148;-75
2022/07/14 05:09:40;;;;;;;10.25;1.40;;;21.00;75.10;;;;;;4962937;28;20192;-76
2022/07/14 05:12:11;;;;;;;5.88;1.88;;;21.10;74.50;;;;;;4964365;28;21811;-75
2022/07/14 05:14:39;;;;;;;5.10;0.90;;;21.10;75.00;;;;;;4975539;28;20049;-75
2022/07/14 05:17:07;;;;;;;7.30;1.52;;;21.10;74.70;;;;;;4983949;28;20068;-76
2022/07/14 05:19:53;;;;;;;10.57;1.02;;;21.00;73.20;;;;;;4958377;28;20045;-75
2022/07/14 05:22:20;;;;;;;10.18;1.20;;;21.00;73.60;;;;;;4974624;28;20052;-76
2022/07/14 05:24:47;;;;;;;5.80;0.98;;;21.20;74.50;;;;;;4965943;28;20580;-76
2022/07/14 05:27:14;;;;;;;8.70;0.98;;;21.50;73.60;;;;;;4966435;28;20085;-76
2022/07/14 05:29:42;;;;;;;6.43;0.90;;;21.80;73.90;;;;;;4952450;28;22103;-75
2022/07/14 05:32:10;;;;;;;6.55;0.93;;;22.00;73.10;;;;;;4957015;28;20053;-75
2022/07/14 05:34:44;;;;;;;8.95;0.82;;;22.30;72.60;;;;;;4965472;28;20041;-75
2022/07/14 05:37:15;;;;;;;6.82;0.93;;;22.40;71.80;;;;;;4949817;28;20057;-76
2022/07/14 05:39:42;;;;;;;5.88;0.80;;;22.60;71.60;;;;;;4981061;28;20054;-75
2022/07/14 05:42:10;;;;;;;3.38;1.10;;;22.80;71.10;;;;;;4982535;28;20045;-75
2022/07/14 05:44:38;;;;;;;4.97;0.98;;;23.00;69.80;;;;;;4996783;28;20053;-75
2022/07/14 05:47:05;;;;;;;4.20;1.05;;;23.20;69.10;;;;;;4979979;28;20058;-75
2022/07/14 05:49:34;;;;;;;3.25;0.60;;;23.30;68.00;;;;;;4967063;28;20056;-76
2022/07/14 05:52:05;;;;;;;4.40;0.93;;;23.50;68.60;;;;;;4985447;28;20052;-75
2022/07/14 05:54:33;;;;;;;5.00;0.75;;;23.60;66.60;;;;;;4954745;28;20765;-75
2022/07/14 05:57:03;;;;;;;2.72;0.60;;;23.80;66.40;;;;;;4968109;28;20895;-75
2022/07/14 05:59:30;;;;;;;4.93;0.93;;;24.00;65.90;;;;;;4958990;28;20052;-75
2022/07/14 06:02:16;;;;;;;5.13;0.75;;;24.20;66.30;;;;;;4977263;28;20128;-75
2022/07/14 06:04:43;;;;;;;6.43;0.88;;;24.40;67.10;;;;;;4996936;28;20056;-76
2022/07/14 06:07:11;;;;;;;6.15;1.08;;;24.60;66.00;;;;;;4985025;28;20681;-75
2022/07/14 06:09:42;;;;;;;4.60;0.60;;;24.70;64.70;;;;;;4978682;28;20457;-76
2022/07/14 06:12:12;;;;;;;4.43;1.10;;;24.90;64.40;;;;;;4981342;28;20061;-75
2022/07/14 06:14:42;;;;;;;5.07;0.90;;;25.10;65.10;;;;;;4979248;28;20058;-76
2022/07/14 06:17:11;;;;;;;5.55;0.95;;;25.20;63.50;;;;;;4972703;28;20049;-76
2022/07/14 06:19:39;;;;;;;6.45;0.65;;;25.40;64.60;;;;;;4978948;28;20052;-76
2022/07/14 06:22:08;;;;;;;7.47;1.38;;;25.50;64.10;;;;;;4959248;28;20049;-75
2022/07/14 06:24:48;;;;;;;5.20;0.80;;;25.70;63.10;;;;;;4996943;28;20075;-75
2022/07/14 06:27:20;;;;;;;6.53;0.90;;;25.80;62.60;;;;;;4953770;28;20045;-76
2022/07/14 06:29:50;;;;;;;4.88;0.63;;;26.00;62.00;;;;;;4971830;28;20414;-76
2022/07/14 06:32:17;;;;;;;3.67;0.60;;;26.10;62.20;;;;;;4967467;28;20080;-76
2022/07/14 06:34:45;;;;;;;7.72;0.85;;;26.20;60.40;;;;;;4980125;28;20136;-75
2022/07/14 06:37:17;;;;;;;8.35;0.90;;;26.40;61.20;;;;;;4985598;28;20053;-77
2022/07/14 06:39:44;;;;;;;3.70;0.50;;;26.50;59.60;;;;;;4980240;28;20049;-75
2022/07/14 06:42:13;;;;;;;6.43;0.60;;;26.70;59.00;;;;;;4966792;28;20041;-76
2022/07/14 06:44:51;;;;;;;6.38;0.70;;;26.70;59.30;;;;;;4978345;28;21359;-76
2022/07/14 06:47:18;;;;;;;9.35;0.70;;;26.80;59.40;;;;;;4954095;28;20195;-76
2022/07/14 06:49:45;;;;;;;5.28;0.95;;;26.90;59.10;;;;;;4961635;28;20389;-75
2022/07/14 06:52:14;;;;;;;1.60;0.40;;;27.00;59.30;;;;;;4952852;28;20060;-76
2022/07/14 06:54:41;;;;;;;7.30;0.73;;;27.00;57.80;;;;;;4966416;28;20049;-76
2022/07/14 06:57:08;;;;;;;4.85;1.15;;;27.20;58.80;;;;;;4968029;28;20049;-76
2022/07/14 06:59:35;;;;;;;1.67;0.70;;;27.40;59.80;;;;;;4975285;28;20046;-76
2022/07/14 07:02:02;;;;;;;7.90;1.08;;;27.50;59.10;;;;;;4978691;28;20053;-76
2022/07/14 07:04:30;;;;;;;3.30;0.98;;;27.60;58.10;;;;;;4975748;28;20037;-77
2022/07/14 07:06:57;;;;;;;5.15;0.40;;;27.80;57.30;;;;;;4976500;28;20679;-77
2022/07/14 07:09:24;;;;;;;4.28;0.40;;;27.90;57.00;;;;;;4992915;28;20053;-75
2022/07/14 07:11:51;;;;;;;5.15;0.68;;;28.00;58.00;;;;;;4978809;28;20052;-76
2022/07/14 07:14:19;;;;;;;3.25;0.85;;;28.00;55.00;;;;;;4980972;28;20072;-76
2022/07/14 07:16:48;;;;;;;4.90;0.50;;;28.00;54.80;;;;;;4974420;28;20061;-75
2022/07/14 07:19:16;;;;;;;3.63;0.50;;;28.20;54.60;;;;;;4971497;28;20041;-76
2022/07/14 07:21:43;;;;;;;1.35;0.30;;;28.30;54.70;;;;;;4951248;28;20053;-76
2022/07/14 07:24:10;;;;;;;2.30;0.60;;;28.40;53.20;;;;;;4980340;28;20053;-75
2022/07/14 07:26:39;;;;;;;2.50;0.40;;;28.50;53.20;;;;;;4979460;28;20041;-76
2022/07/14 07:29:07;;;;;;;2.85;0.30;;;28.60;53.70;;;;;;4965831;28;21997;-75
2022/07/14 07:31:35;;;;;;;2.20;0.30;;;28.30;54.30;;;;;;4982066;28;20057;-75
2022/07/14 07:34:03;;;;;;;2.65;0.40;;;28.10;54.20;;;;;;4954478;28;20769;-77
2022/07/14 07:36:30;;;;;;;3.50;0.20;;;28.30;54.30;;;;;;4970523;28;20758;-76
2022/07/14 07:38:57;;;;;;;1.63;0.30;;;28.60;53.60;;;;;;4989721;28;20055;-76
2022/07/14 07:41:24;;;;;;;2.85;0.30;;;28.90;53.50;;;;;;4980920;28;20052;-76
2022/07/14 07:43:52;;;;;;;2.58;0.40;;;29.00;54.20;;;;;;4985010;28;20857;-76
2022/07/14 07:46:19;;;;;;;1.83;0.30;;;29.20;51.50;;;;;;4968720;28;20536;-76
2022/07/14 07:48:46;;;;;;;1.42;0.20;;;29.00;51.00;;;;;;4995655;28;20428;-77
2022/07/14 07:51:14;;;;;;;0.93;0.20;;;29.10;50.80;;;;;;5017408;28;20052;-75
2022/07/14 07:53:43;;;;;;;1.38;0.20;;;29.00;50.10;;;;;;5003263;28;20546;-76
2022/07/14 07:56:10;;;;;;;1.63;0.30;;;29.20;50.10;;;;;;4999303;28;20143;-75
2022/07/14 07:58:37;;;;;;;2.85;0.50;;;29.40;51.50;;;;;;4985198;28;20228;-79
2022/07/14 08:01:05;;;;;;;2.80;0.30;;;29.70;50.60;;;;;;4979496;28;20150;-76
2022/07/14 08:03:32;;;;;;;1.80;0.70;;;29.80;49.70;;;;;;4968619;28;20045;-75
2022/07/14 08:06:07;;;;;;;2.85;0.57;;;29.90;50.20;;;;;;4995410;28;22121;-76
2022/07/14 08:08:54;;;;;;;1.88;0.25;;;29.80;50.90;;;;;;4978507;28;20075;-76
2022/07/14 08:11:21;;;;;;;4.30;0.30;;;29.70;50.00;;;;;;4968840;28;20789;-76
2022/07/14 08:13:49;;;;;;;0.93;0.20;;;29.80;49.70;;;;;;4988137;28;20124;-77
2022/07/14 08:16:16;;;;;;;2.88;0.60;;;29.90;48.80;;;;;;4991922;28;20060;-75
2022/07/14 08:18:43;;;;;;;0.60;0.20;;;29.80;47.40;;;;;;4982026;28;20049;-77
2022/07/14 08:21:10;;;;;;;3.28;0.30;;;29.80;47.90;;;;;;4979371;28;20049;-76
2022/07/14 08:23:38;;;;;;;0.90;0.28;;;29.80;48.10;;;;;;4966263;28;20049;-74
2022/07/14 08:26:05;;;;;;;1.88;0.28;;;29.90;48.30;;;;;;4993413;28;20049;-75
2022/07/14 08:28:33;;;;;;;0.50;0.20;;;30.00;47.60;;;;;;4968273;28;20168;-75
2022/07/14 08:31:00;;;;;;;4.05;0.20;;;30.00;47.80;;;;;;4964386;28;20053;-75
2022/07/14 08:33:27;;;;;;;3.40;0.20;;;30.10;47.50;;;;;;4980404;28;20838;-75
2022/07/14 08:35:54;;;;;;;0.95;0.30;;;30.10;47.10;;;;;;4968292;28;20049;-75
2022/07/14 08:38:21;;;;;;;3.47;0.38;;;30.20;47.30;;;;;;4968358;28;20598;-76
2022/07/14 08:40:49;;;;;;;0.82;0.20;;;30.20;47.10;;;;;;4954425;28;20076;-75
2022/07/14 08:43:17;;;;;;;1.23;0.20;;;30.30;47.50;;;;;;4978627;28;20798;-75
2022/07/14 08:45:45;;;;;;;3.03;0.20;;;30.30;47.90;;;;;;4967124;28;20058;-76
2022/07/14 08:48:14;;;;;;;1.77;0.30;;;30.50;45.90;;;;;;4996431;28;20050;-76
2022/07/14 08:50:41;;;;;;;2.00;0.20;;;30.50;46.50;;;;;;4968282;28;20046;-76
2022/07/14 08:53:12;;;;;;;0.65;0.20;;;30.50;46.40;;;;;;4980518;28;20128;-76
2022/07/14 08:55:39;;;;;;;1.67;0.20;;;30.50;46.50;;;;;;4959410;28;20057;-76
2022/07/14 08:58:06;;;;;;;2.15;0.38;;;30.50;45.50;;;;;;4967033;28;20049;-77
2022/07/14 09:00:33;;;;;;;1.50;0.22;;;30.40;45.30;;;;;;4978686;28;20080;-76
2022/07/14 09:03:01;;;;;;;1.60;0.20;;;30.70;46.50;;;;;;4980037;28;20650;-77
2022/07/14 09:05:44;;;;;;;0.70;0.20;;;30.70;46.20;;;;;;4980096;28;20633;-77
2022/07/14 09:08:13;;;;;;;1.90;0.40;;;30.70;43.80;;;;;;4987052;28;22051;-76
2022/07/14 09:10:43;;;;;;;1.75;0.13;;;30.70;43.60;;;;;;4984420;28;20050;-76
2022/07/14 09:13:33;;;;;;;1.92;0.20;;;30.70;42.50;;;;;;4971597;28;20045;-77
2022/07/14 09:16:21;;;;;;;0.90;0.20;;;30.80;41.90;;;;;;4969114;28;20088;-77
2022/07/14 09:19:05;;;;;;;0.77;0.10;;;30.80;43.50;;;;;;5001761;28;20420;-78
2022/07/14 09:21:33;;;;;;;4.68;0.25;;;30.90;43.00;;;;;;4964751;28;20527;-77
2022/07/14 09:24:00;;;;;;;1.23;0.25;;;30.80;43.20;;;;;;4971712;28;20041;-75
2022/07/14 09:26:27;;;;;;;1.15;0.20;;;30.80;43.10;;;;;;4964752;28;20102;-78
2022/07/14 09:28:55;;;;;;;2.67;0.30;;;30.90;43.10;;;;;;4989217;28;20046;-78
2022/07/14 09:31:31;;;;;;;2.45;0.52;;;30.90;42.70;;;;;;4974587;28;20065;-75
2022/07/14 09:34:00;;;;;;;0.80;0.20;;;31.00;43.20;;;;;;4982452;28;20045;-75
2022/07/14 09:36:37;;;;;;;1.00;0.20;;;30.80;43.10;;;;;;4974309;28;20135;-77
2022/07/14 09:39:09;;;;;;;3.80;0.30;;;30.90;43.00;;;;;;4984403;28;20133;-76
2022/07/14 09:41:53;;;;;;;3.03;0.73;;;31.10;43.30;;;;;;4969961;28;20898;-76
2022/07/14 09:44:22;;;;;;;3.83;0.20;;;31.30;43.60;;;;;;4983912;28;21003;-76
2022/07/14 09:46:54;;;;;;;0.95;0.20;;;31.20;42.20;;;;;;4980140;28;20086;-75
2022/07/14 09:49:28;;;;;;;1.38;0.20;;;31.20;42.80;;;;;;4987895;28;20108;-76
2022/07/14 09:52:08;;;;;;;1.73;0.20;;;31.20;41.00;;;;;;4983480;28;20180;-77
2022/07/14 09:54:44;;;;;;;1.27;0.20;;;31.20;40.00;;;;;;4984450;28;20049;-75
2022/07/14 09:57:14;;;;;;;0.73;0.20;;;31.30;40.40;;;;;;4971593;28;20382;-76
2022/07/14 10:00:12;;;;;;;1.70;0.20;;;31.40;40.30;;;;;;4985391;28;20488;-76
2022/07/14 10:02:41;;;;;;;6.90;0.30;;;31.50;40.60;;;;;;4982046;28;20408;-76
2022/07/14 10:05:10;;;;;;;0.40;0.20;;;31.40;40.30;;;;;;4982285;28;20048;-76
2022/07/14 10:07:47;;;;;;;1.40;0.47;;;31.00;40.50;;;;;;4983185;28;22125;-76
2022/07/14 10:10:23;;;;;;;0.85;0.20;;;31.10;40.50;;;;;;4981614;28;20104;-76
2022/07/14 10:12:50;;;;;;;3.10;0.60;;;31.30;40.40;;;;;;4983106;28;20061;-76
2022/07/14 10:15:18;;;;;;;1.52;0.20;;;31.20;40.60;;;;;;4982767;28;20049;-75
2022/07/14 10:17:45;;;;;;;0.57;0.20;;;31.00;41.10;;;;;;4984376;28;20226;-77
2022/07/14 10:20:13;;;;;;;2.28;0.45;;;31.10;40.50;;;;;;4969479;28;22506;-76
2022/07/14 10:22:41;;;;;;;0.70;0.10;;;31.20;41.30;;;;;;4998433;28;20670;-76
2022/07/14 10:25:09;;;;;;;2.33;0.30;;;31.50;40.80;;;;;;4962185;28;20065;-77
2022/07/14 10:27:41;;;;;;;0.90;0.25;;;31.60;40.40;;;;;;4988438;28;20052;-76
2022/07/14 10:30:09;;;;;;;0.40;0.20;;;31.50;39.90;;;;;;4982844;28;20049;-76
2022/07/14 10:32:47;;;;;;;1.35;0.20;;;31.50;40.80;;;;;;4998965;28;20547;-76
2022/07/14 10:35:17;;;;;;;1.38;0.30;;;31.60;40.50;;;;;;4966584;28;20053;-76
2022/07/14 10:38:15;;;;;;;3.03;0.20;;;31.50;40.80;;;;;;4984398;28;20523;-77
2022/07/14 10:40:42;;;;;;;2.25;0.22;;;31.30;40.20;;;;;;4983480;28;20068;-76
2022/07/14 10:43:23;;;;;;;1.83;0.30;;;31.00;40.20;;;;;;4984524;28;20706;-77
2022/07/14 10:45:52;;;;;;;0.60;0.17;;;30.80;41.10;;;;;;4969277;28;20054;-76
2022/07/14 10:48:30;;;;;;;1.17;0.20;;;30.60;41.40;;;;;;4985187;28;20045;-76
2022/07/14 10:51:15;;;;;;;0.75;0.30;;;30.60;42.70;;;;;;4980114;28;20057;-77
2022/07/14 10:54:05;;;;;;;2.40;0.25;;;30.70;42.50;;;;;;4989623;28;20050;-77
2022/07/14 10:57:16;;;;;;;3.80;0.43;;;31.20;40.10;;;;;;4987667;28;20534;-76
2022/07/14 10:59:48;;;;;;;3.33;0.52;;;31.50;39.30;;;;;;4978852;28;20059;-76
2022/07/14 11:02:16;;;;;;;3.67;0.40;;;31.70;39.40;;;;;;4986462;28;20052;-77
2022/07/14 11:05:08;;;;;;;5.95;0.22;;;31.80;38.90;;;;;;4974002;28;20817;-76
2022/07/14 11:07:50;;;;;;;0.75;0.20;;;31.80;39.20;;;;;;4989187;28;22222;-76
2022/07/14 11:10:21;;;;;;;1.90;0.30;;;31.30;39.10;;;;;;4989600;28;22181;-76
2022/07/14 11:13:02;;;;;;;0.73;0.20;;;30.90;40.10;;;;;;4988394;28;20106;-77
2022/07/14 11:15:37;;;;;;;1.13;0.20;;;30.50;40.30;;;;;;4982671;28;20082;-77
2022/07/14 11:18:41;;;;;;;0.20;0.10;;;30.30;41.00;;;;;;5005755;28;20053;-77
2022/07/14 11:21:17;;;;;;;1.33;0.22;;;30.70;40.20;;;;;;4976583;28;20057;-77
2022/07/14 11:23:50;;;;;;;2.45;0.10;;;31.10;40.40;;;;;;4986477;28;20045;-77
2022/07/14 11:26:32;;;;;;;0.73;0.20;;;31.50;39.50;;;;;;4989017;28;20051;-76
2022/07/14 11:29:02;;;;;;;0.63;0.20;;;31.60;40.00;;;;;;4974756;28;20054;-76
2022/07/14 11:31:49;;;;;;;1.27;0.20;;;31.80;39.20;;;;;;4984701;28;20053;-77
2022/07/14 11:37:16;;;;;;;0.30;0.20;;;31.70;40.30;;;;;;4984802;28;20762;-76
2022/07/14 11:40:42;;;;;;;1.40;0.20;;;31.80;39.50;;;;;;4990462;28;20118;-76
2022/07/14 11:43:31;;;;;;;2.88;0.50;;;31.90;40.70;;;;;;4985647;28;21812;-76
2022/07/14 11:46:10;;;;;;;0.70;0.20;;;32.10;39.10;;;;;;4964334;28;20091;-77
2022/07/14 11:48:48;;;;;;;2.92;0.30;;;32.20;39.50;;;;;;4984769;28;20049;-76
2022/07/14 11:51:29;;;;;;;1.48;0.20;;;31.90;39.60;;;;;;4986720;28;20046;-76
2022/07/14 11:54:01;;;;;;;1.33;0.27;;;31.90;38.60;;;;;;4983122;28;20111;-75
2022/07/14 11:56:30;;;;;;;1.85;0.30;;;31.60;39.00;;;;;;4986806;28;20096;-79
2022/07/14 11:59:03;;;;;;;1.83;0.10;;;31.30;39.20;;;;;;5002062;28;20088;-76
2022/07/14 12:01:33;;;;;;;1.92;0.30;;;31.60;39.60;;;;;;4989396;28;20053;-77
2022/07/14 12:04:16;;;;;;;0.20;0.10;;;32.00;38.90;;;;;;4985733;28;20500;-78
2022/07/14 12:06:45;;;;;;;0.40;0.20;;;32.20;39.30;;;;;;5002356;28;22457;-77
2022/07/14 12:09:16;;;;;;;0.52;0.20;;;32.50;38.50;;;;;;4961354;28;20041;-77
2022/07/14 12:12:02;;;;;;;2.50;0.50;;;32.40;38.90;;;;;;4999385;28;20052;-76
2022/07/14 12:14:31;;;;;;;7.10;0.60;;;32.50;38.40;;;;;;4988214;28;20045;-77
2022/07/14 12:16:58;;;;;;;0.55;0.10;;;32.60;38.00;;;;;;4974118;28;20053;-78
2022/07/14 12:19:30;;;;;;;1.42;0.20;;;32.60;38.10;;;;;;4987201;28;20064;-76
2022/07/14 12:21:59;;;;;;;1.20;0.20;;;32.50;39.70;;;;;;5002184;28;20233;-76
2022/07/14 12:24:26;;;;;;;2.65;0.20;;;32.40;39.80;;;;;;4986311;28;20049;-77
2022/07/14 12:27:06;;;;;;;0.20;0.10;;;32.50;38.60;;;;;;4970687;28;20057;-76
2022/07/14 12:29:35;;;;;;;1.50;0.40;;;32.20;38.60;;;;;;4982354;28;20463;-78
2022/07/14 12:32:03;;;;;;;0.55;0.10;;;31.90;39.70;;;;;;4985407;28;20080;-77
2022/07/14 12:34:31;;;;;;;1.45;0.30;;;32.00;39.00;;;;;;4986707;28;20657;-77
2022/07/14 12:37:00;;;;;;;1.38;0.20;;;32.20;38.80;;;;;;4971114;28;20054;-77
2022/07/14 12:39:31;;;;;;;1.58;0.28;;;32.20;38.10;;;;;;4987319;28;22092;-76
2022/07/14 12:41:59;;;;;;;1.38;0.17;;;32.20;38.10;;;;;;4985467;28;20050;-77
2022/07/14 12:44:27;;;;;;;1.50;0.20;;;32.20;38.10;;;;;;4984331;28;20054;-77
2022/07/14 12:47:12;;;;;;;2.17;0.20;;;32.10;38.40;;;;;;4975686;28;20061;-76
2022/07/14 12:49:47;;;;;;;2.45;0.20;;;32.30;38.00;;;;;;4990379;28;20046;-75
2022/07/14 12:52:15;;;;;;;0.93;0.10;;;32.50;37.50;;;;;;4984043;28;20800;-76
2022/07/14 12:54:43;;;;;;;0.38;0.13;;;32.60;38.00;;;;;;4970037;28;20801;-76
2022/07/14 12:57:34;;;;;;;1.75;0.60;;;32.60;37.20;;;;;;4983720;28;20079;-76
2022/07/14 13:00:14;;;;;;;0.35;0.10;;;32.60;37.60;;;;;;4962665;28;20053;-76
2022/07/14 13:02:41;;;;;;;1.30;0.20;;;32.50;37.00;;;;;;4986310;28;20045;-75
2022/07/14 13:05:10;;;;;;;0.50;0.10;;;32.50;38.50;;;;;;4982648;28;20050;-75
2022/07/14 13:07:39;;;;;;;0.65;0.20;;;32.40;38.30;;;;;;4986766;28;22176;-75
2022/07/14 13:10:19;;;;;;;0.35;0.20;;;32.30;38.50;;;;;;4998062;28;20048;-75
2022/07/14 13:12:48;;;;;;;0.50;0.13;;;32.10;39.30;;;;;;4984012;28;20068;-77